sensor_id;sensor_type;location;lat;lon;timestamp;P1;durP1;ratioP1;P2;durP2;ratioP2
63836;SDS011;49991;50.518;30.486;2022-07-11T00:01:00;2.35;;;2.15;;
63836;SDS011;49991;50.518;30.486;2022-07-11T00:03:26;2.60;;;2.50;;
63836;SDS011;49991;50.518;30.486;2022-07-11T00:05:54;2.50;;;2.30;;
63836;SDS011;49991;50.518;30.486;2022-07-11T00:08:21;2.38;;;2.20;;
63836;SDS011;49991;50.518;30.486;2022-07-11T00:10:48;3.92;;;2.45;;
63836;SDS011;49991;50.518;30.486;2022-07-11T00:13:14;2.50;;;2.40;;
63836;SDS011;49991;50.518;30.486;2022-07-11T00:15:43;3.03;;;2.03;;
63836;SDS011;49991;50.518;30.486;2022-07-11T00:18:10;2.47;;;2.28;;
63836;SDS011;49991;50.518;30.486;2022-07-11T00:20:37;2.22;;;2.10;;
63836;SDS011;49991;50.518;30.486;2022-07-11T00:23:05;3.38;;;2.30;;
63836;SDS011;49991;50.518;30.486;2022-07-11T00:25:31;2.45;;;2.25;;
63836;SDS011;49991;50.518;30.486;2022-07-11T00:27:58;2.22;;;2.13;;
63836;SDS011;49991;50.518;30.486;2022-07-11T00:30:25;2.80;;;2.20;;
63836;SDS011;49991;50.518;30.486;2022-07-11T00:32:51;2.28;;;2.17;;
63836;SDS011;49991;50.518;30.486;2022-07-11T00:35:18;2.30;;;2.10;;
63836;SDS011;49991;50.518;30.486;2022-07-11T00:37:45;4.25;;;2.17;;
63836;SDS011;49991;50.518;30.486;2022-07-11T00:40:13;2.25;;;2.08;;
63836;SDS011;49991;50.518;30.486;2022-07-11T00:42:39;2.13;;;2.00;;
63836;SDS011;49991;50.518;30.486;2022-07-11T00:45:06;2.05;;;1.95;;
63836;SDS011;49991;50.518;30.486;2022-07-11T00:47:34;2.00;;;1.90;;
63836;SDS011;49991;50.518;30.486;2022-07-11T00:50:00;2.50;;;2.30;;
63836;SDS011;49991;50.518;30.486;2022-07-11T00:52:27;2.10;;;2.00;;
63836;SDS011;49991;50.518;30.486;2022-07-11T00:54:55;2.22;;;2.03;;
63836;SDS011;49991;50.518;30.486;2022-07-11T00:57:24;2.58;;;2.20;;
63836;SDS011;49991;50.518;30.486;2022-07-11T00:59:51;2.03;;;1.80;;
63836;SDS011;49991;50.518;30.486;2022-07-11T01:02:19;2.22;;;1.83;;
63836;SDS011;49991;50.518;30.486;2022-07-11T01:04:45;2.47;;;2.00;;
63836;SDS011;49991;50.518;30.486;2022-07-11T01:07:12;1.90;;;1.80;;
63836;SDS011;49991;50.518;30.486;2022-07-11T01:09:39;2.17;;;1.98;;
63836;SDS011;49991;50.518;30.486;2022-07-11T01:12:06;2.25;;;2.00;;
63836;SDS011;49991;50.518;30.486;2022-07-11T01:14:35;2.05;;;1.90;;
63836;SDS011;49991;50.518;30.486;2022-07-11T01:17:03;2.08;;;1.98;;
63836;SDS011;49991;50.518;30.486;2022-07-11T01:19:30;2.40;;;2.20;;
63836;SDS011;49991;50.518;30.486;2022-07-11T01:21:57;4.22;;;1.90;;
63836;SDS011;49991;50.518;30.486;2022-07-11T01:24:29;3.33;;;2.20;;
63836;SDS011;49991;50.518;30.486;2022-07-11T01:26:57;2.45;;;2.25;;
63836;SDS011;49991;50.518;30.486;2022-07-11T01:29:24;3.33;;;2.17;;
63836;SDS011;49991;50.518;30.486;2022-07-11T01:31:50;2.20;;;2.10;;
63836;SDS011;49991;50.518;30.486;2022-07-11T01:34:17;2.40;;;2.20;;
63836;SDS011;49991;50.518;30.486;2022-07-11T01:36:46;2.50;;;2.30;;
63836;SDS011;49991;50.518;30.486;2022-07-11T01:39:13;2.30;;;2.10;;
63836;SDS011;49991;50.518;30.486;2022-07-11T01:41:40;2.15;;;2.05;;
63836;SDS011;49991;50.518;30.486;2022-07-11T01:44:07;2.38;;;2.05;;
63836;SDS011;49991;50.518;30.486;2022-07-11T01:46:34;2.28;;;1.90;;
63836;SDS011;49991;50.518;30.486;2022-07-11T01:49:00;2.15;;;2.00;;
63836;SDS011;49991;50.518;30.486;2022-07-11T01:51:27;1.95;;;1.73;;
63836;SDS011;49991;50.518;30.486;2022-07-11T01:53:54;2.10;;;2.00;;
63836;SDS011;49991;50.518;30.486;2022-07-11T01:56:21;1.90;;;1.80;;
63836;SDS011;49991;50.518;30.486;2022-07-11T01:58:49;2.55;;;2.17;;
63836;SDS011;49991;50.518;30.486;2022-07-11T02:01:16;7.22;;;2.17;;
63836;SDS011;49991;50.518;30.486;2022-07-11T02:03:42;2.22;;;2.03;;
63836;SDS011;49991;50.518;30.486;2022-07-11T02:06:09;2.60;;;2.40;;
63836;SDS011;49991;50.518;30.486;2022-07-11T02:08:36;2.30;;;2.20;;
63836;SDS011;49991;50.518;30.486;2022-07-11T02:11:03;2.15;;;2.05;;
63836;SDS011;49991;50.518;30.486;2022-07-11T02:13:29;3.03;;;1.95;;
63836;SDS011;49991;50.518;30.486;2022-07-11T02:15:57;4.57;;;2.13;;
63836;SDS011;49991;50.518;30.486;2022-07-11T02:18:24;2.15;;;1.95;;
63836;SDS011;49991;50.518;30.486;2022-07-11T02:20:51;1.90;;;1.80;;
63836;SDS011;49991;50.518;30.486;2022-07-11T02:23:18;3.33;;;2.05;;
63836;SDS011;49991;50.518;30.486;2022-07-11T02:25:45;2.17;;;1.98;;
63836;SDS011;49991;50.518;30.486;2022-07-11T02:28:12;2.22;;;1.92;;
63836;SDS011;49991;50.518;30.486;2022-07-11T02:30:42;2.35;;;2.20;;
63836;SDS011;49991;50.518;30.486;2022-07-11T02:33:12;2.10;;;2.00;;
63836;SDS011;49991;50.518;30.486;2022-07-11T02:35:40;5.25;;;2.00;;
63836;SDS011;49991;50.518;30.486;2022-07-11T02:38:07;2.00;;;1.90;;
63836;SDS011;49991;50.518;30.486;2022-07-11T02:40:35;2.38;;;2.20;;
63836;SDS011;49991;50.518;30.486;2022-07-11T02:43:02;2.45;;;2.10;;
63836;SDS011;49991;50.518;30.486;2022-07-11T02:45:29;2.20;;;1.95;;
63836;SDS011;49991;50.518;30.486;2022-07-11T02:47:56;2.45;;;2.17;;
63836;SDS011;49991;50.518;30.486;2022-07-11T02:50:24;3.08;;;2.22;;
63836;SDS011;49991;50.518;30.486;2022-07-11T02:52:50;2.22;;;2.10;;
63836;SDS011;49991;50.518;30.486;2022-07-11T02:55:17;2.10;;;2.00;;
63836;SDS011;49991;50.518;30.486;2022-07-11T02:57:44;2.28;;;2.08;;
63836;SDS011;49991;50.518;30.486;2022-07-11T03:00:11;2.15;;;2.05;;
63836;SDS011;49991;50.518;30.486;2022-07-11T03:02:40;1.92;;;1.83;;
63836;SDS011;49991;50.518;30.486;2022-07-11T03:05:07;2.10;;;2.00;;
63836;SDS011;49991;50.518;30.486;2022-07-11T03:07:35;2.47;;;2.00;;
63836;SDS011;49991;50.518;30.486;2022-07-11T03:10:03;4.00;;;2.25;;
63836;SDS011;49991;50.518;30.486;2022-07-11T03:12:30;2.40;;;2.00;;
63836;SDS011;49991;50.518;30.486;2022-07-11T03:14:57;4.97;;;2.17;;
63836;SDS011;49991;50.518;30.486;2022-07-11T03:17:24;2.30;;;2.20;;
63836;SDS011;49991;50.518;30.486;2022-07-11T03:19:51;2.20;;;2.05;;
63836;SDS011;49991;50.518;30.486;2022-07-11T03:22:18;4.43;;;2.30;;
63836;SDS011;49991;50.518;30.486;2022-07-11T03:24:46;2.40;;;2.20;;
63836;SDS011;49991;50.518;30.486;2022-07-11T03:27:12;3.72;;;2.58;;
63836;SDS011;49991;50.518;30.486;2022-07-11T03:29:39;2.70;;;2.28;;
63836;SDS011;49991;50.518;30.486;2022-07-11T03:32:06;4.50;;;2.40;;
63836;SDS011;49991;50.518;30.486;2022-07-11T03:34:33;4.28;;;2.35;;
63836;SDS011;49991;50.518;30.486;2022-07-11T03:37:01;3.60;;;2.20;;
63836;SDS011;49991;50.518;30.486;2022-07-11T03:39:27;2.40;;;2.20;;
63836;SDS011;49991;50.518;30.486;2022-07-11T03:41:55;2.85;;;2.58;;
63836;SDS011;49991;50.518;30.486;2022-07-11T03:44:22;2.45;;;2.10;;
63836;SDS011;49991;50.518;30.486;2022-07-11T03:46:49;2.60;;;2.40;;
63836;SDS011;49991;50.518;30.486;2022-07-11T03:49:15;5.07;;;2.88;;
63836;SDS011;49991;50.518;30.486;2022-07-11T03:51:42;3.03;;;2.40;;
63836;SDS011;49991;50.518;30.486;2022-07-11T03:54:09;2.50;;;2.30;;
63836;SDS011;49991;50.518;30.486;2022-07-11T03:56:36;2.47;;;2.20;;
63836;SDS011;49991;50.518;30.486;2022-07-11T03:59:04;3.40;;;2.42;;
63836;SDS011;49991;50.518;30.486;2022-07-11T04:01:30;2.85;;;2.10;;
63836;SDS011;49991;50.518;30.486;2022-07-11T04:03:57;2.58;;;2.38;;
63836;SDS011;49991;50.518;30.486;2022-07-11T04:06:24;3.03;;;2.40;;
63836;SDS011;49991;50.518;30.486;2022-07-11T04:08:51;2.83;;;2.50;;
63836;SDS011;49991;50.518;30.486;2022-07-11T04:11:17;2.75;;;2.42;;
63836;SDS011;49991;50.518;30.486;2022-07-11T04:13:44;2.72;;;2.53;;
63836;SDS011;49991;50.518;30.486;2022-07-11T04:16:12;3.65;;;2.40;;
63836;SDS011;49991;50.518;30.486;2022-07-11T04:18:38;4.45;;;2.45;;
63836;SDS011;49991;50.518;30.486;2022-07-11T04:21:05;2.67;;;2.47;;
63836;SDS011;49991;50.518;30.486;2022-07-11T04:23:32;5.20;;;2.72;;
63836;SDS011;49991;50.518;30.486;2022-07-11T04:25:58;2.70;;;2.50;;
63836;SDS011;49991;50.518;30.486;2022-07-11T04:28:25;2.40;;;2.20;;
63836;SDS011;49991;50.518;30.486;2022-07-11T04:30:51;2.88;;;2.67;;
63836;SDS011;49991;50.518;30.486;2022-07-11T04:33:19;2.97;;;2.50;;
63836;SDS011;49991;50.518;30.486;2022-07-11T04:35:46;3.63;;;2.72;;
63836;SDS011;49991;50.518;30.486;2022-07-11T04:38:13;3.03;;;2.70;;
63836;SDS011;49991;50.518;30.486;2022-07-11T04:40:39;3.28;;;3.05;;
63836;SDS011;49991;50.518;30.486;2022-07-11T04:43:06;2.50;;;2.30;;
63836;SDS011;49991;50.518;30.486;2022-07-11T04:45:33;3.35;;;2.80;;
63836;SDS011;49991;50.518;30.486;2022-07-11T04:48:00;3.40;;;2.70;;
63836;SDS011;49991;50.518;30.486;2022-07-11T04:50:29;6.55;;;2.70;;
63836;SDS011;49991;50.518;30.486;2022-07-11T04:52:56;3.92;;;3.28;;
63836;SDS011;49991;50.518;30.486;2022-07-11T04:55:22;3.95;;;2.97;;
63836;SDS011;49991;50.518;30.486;2022-07-11T04:57:49;3.38;;;2.83;;
63836;SDS011;49991;50.518;30.486;2022-07-11T05:00:16;4.18;;;3.58;;
63836;SDS011;49991;50.518;30.486;2022-07-11T05:02:43;5.65;;;3.85;;
63836;SDS011;49991;50.518;30.486;2022-07-11T05:05:10;6.85;;;4.07;;
63836;SDS011;49991;50.518;30.486;2022-07-11T05:07:38;4.57;;;4.13;;
63836;SDS011;49991;50.518;30.486;2022-07-11T05:10:06;7.50;;;5.03;;
63836;SDS011;49991;50.518;30.486;2022-07-11T05:12:33;8.73;;;5.65;;
63836;SDS011;49991;50.518;30.486;2022-07-11T05:15:00;11.05;;;6.00;;
63836;SDS011;49991;50.518;30.486;2022-07-11T05:17:27;13.13;;;7.00;;
63836;SDS011;49991;50.518;30.486;2022-07-11T05:19:53;12.23;;;7.47;;
63836;SDS011;49991;50.518;30.486;2022-07-11T05:22:20;12.68;;;7.70;;
63836;SDS011;49991;50.518;30.486;2022-07-11T05:24:48;12.00;;;7.53;;
63836;SDS011;49991;50.518;30.486;2022-07-11T05:27:15;14.38;;;8.57;;
63836;SDS011;49991;50.518;30.486;2022-07-11T05:29:42;17.08;;;9.10;;
63836;SDS011;49991;50.518;30.486;2022-07-11T05:32:08;15.88;;;8.30;;
63836;SDS011;49991;50.518;30.486;2022-07-11T05:34:35;15.13;;;9.55;;
63836;SDS011;49991;50.518;30.486;2022-07-11T05:37:02;14.52;;;9.10;;
63836;SDS011;49991;50.518;30.486;2022-07-11T05:39:29;14.40;;;9.90;;
63836;SDS011;49991;50.518;30.486;2022-07-11T05:41:57;17.17;;;9.30;;
63836;SDS011;49991;50.518;30.486;2022-07-11T05:44:24;15.27;;;10.23;;
63836;SDS011;49991;50.518;30.486;2022-07-11T05:46:51;16.95;;;11.30;;
63836;SDS011;49991;50.518;30.486;2022-07-11T05:49:17;21.58;;;10.82;;
63836;SDS011;49991;50.518;30.486;2022-07-11T05:51:44;16.30;;;9.75;;
63836;SDS011;49991;50.518;30.486;2022-07-11T05:54:11;15.93;;;10.27;;
63836;SDS011;49991;50.518;30.486;2022-07-11T05:56:37;16.80;;;10.07;;
63836;SDS011;49991;50.518;30.486;2022-07-11T05:59:05;16.60;;;9.57;;
63836;SDS011;49991;50.518;30.486;2022-07-11T06:01:32;13.52;;;9.50;;
63836;SDS011;49991;50.518;30.486;2022-07-11T06:03:59;14.75;;;9.52;;
63836;SDS011;49991;50.518;30.486;2022-07-11T06:06:26;16.92;;;9.43;;
63836;SDS011;49991;50.518;30.486;2022-07-11T06:08:53;13.93;;;8.77;;
63836;SDS011;49991;50.518;30.486;2022-07-11T06:11:19;15.40;;;9.07;;
63836;SDS011;49991;50.518;30.486;2022-07-11T06:13:46;14.48;;;9.25;;
63836;SDS011;49991;50.518;30.486;2022-07-11T06:16:15;18.00;;;10.38;;
63836;SDS011;49991;50.518;30.486;2022-07-11T06:18:42;14.00;;;8.90;;
63836;SDS011;49991;50.518;30.486;2022-07-11T06:21:09;14.38;;;9.32;;
63836;SDS011;49991;50.518;30.486;2022-07-11T06:23:36;16.30;;;9.43;;
63836;SDS011;49991;50.518;30.486;2022-07-11T06:26:03;14.93;;;8.70;;
63836;SDS011;49991;50.518;30.486;2022-07-11T06:28:30;12.90;;;8.30;;
63836;SDS011;49991;50.518;30.486;2022-07-11T06:30:57;12.90;;;7.85;;
63836;SDS011;49991;50.518;30.486;2022-07-11T06:33:25;15.27;;;7.88;;
63836;SDS011;49991;50.518;30.486;2022-07-11T06:35:52;14.77;;;7.70;;
63836;SDS011;49991;50.518;30.486;2022-07-11T06:38:19;11.57;;;7.60;;
63836;SDS011;49991;50.518;30.486;2022-07-11T06:40:46;9.25;;;6.25;;
63836;SDS011;49991;50.518;30.486;2022-07-11T06:43:13;10.38;;;6.75;;
63836;SDS011;49991;50.518;30.486;2022-07-11T06:45:40;11.40;;;6.22;;
63836;SDS011;49991;50.518;30.486;2022-07-11T06:48:06;11.10;;;6.40;;
63836;SDS011;49991;50.518;30.486;2022-07-11T06:50:35;6.85;;;5.10;;
63836;SDS011;49991;50.518;30.486;2022-07-11T06:53:02;6.20;;;4.30;;
63836;SDS011;49991;50.518;30.486;2022-07-11T06:55:28;7.28;;;4.30;;
63836;SDS011;49991;50.518;30.486;2022-07-11T06:57:55;5.07;;;4.00;;
63836;SDS011;49991;50.518;30.486;2022-07-11T07:00:22;4.25;;;3.53;;
63836;SDS011;49991;50.518;30.486;2022-07-11T07:02:49;5.10;;;3.58;;
63836;SDS011;49991;50.518;30.486;2022-07-11T07:05:16;3.83;;;2.80;;
63836;SDS011;49991;50.518;30.486;2022-07-11T07:07:44;3.10;;;2.80;;
63836;SDS011;49991;50.518;30.486;2022-07-11T07:10:10;3.67;;;2.90;;
63836;SDS011;49991;50.518;30.486;2022-07-11T07:12:37;3.67;;;2.63;;
63836;SDS011;49991;50.518;30.486;2022-07-11T07:15:05;2.72;;;2.53;;
63836;SDS011;49991;50.518;30.486;2022-07-11T07:17:34;5.28;;;2.75;;
63836;SDS011;49991;50.518;30.486;2022-07-11T07:20:01;6.25;;;2.50;;
63836;SDS011;49991;50.518;30.486;2022-07-11T07:22:28;2.75;;;2.50;;
63836;SDS011;49991;50.518;30.486;2022-07-11T07:24:57;3.42;;;2.60;;
63836;SDS011;49991;50.518;30.486;2022-07-11T07:27:23;2.70;;;2.42;;
63836;SDS011;49991;50.518;30.486;2022-07-11T07:29:50;3.60;;;2.45;;
63836;SDS011;49991;50.518;30.486;2022-07-11T07:32:17;3.63;;;2.60;;
63836;SDS011;49991;50.518;30.486;2022-07-11T07:34:44;3.00;;;2.20;;
63836;SDS011;49991;50.518;30.486;2022-07-11T07:37:10;3.17;;;2.50;;
63836;SDS011;49991;50.518;30.486;2022-07-11T07:39:37;2.80;;;2.30;;
63836;SDS011;49991;50.518;30.486;2022-07-11T07:42:05;3.33;;;2.30;;
63836;SDS011;49991;50.518;30.486;2022-07-11T07:44:32;3.45;;;2.40;;
63836;SDS011;49991;50.518;30.486;2022-07-11T07:47:00;3.63;;;2.25;;
63836;SDS011;49991;50.518;30.486;2022-07-11T07:49:26;3.58;;;2.13;;
63836;SDS011;49991;50.518;30.486;2022-07-11T07:51:53;2.92;;;1.98;;
63836;SDS011;49991;50.518;30.486;2022-07-11T07:54:20;8.93;;;2.65;;
63836;SDS011;49991;50.518;30.486;2022-07-11T07:56:46;3.20;;;2.15;;
63836;SDS011;49991;50.518;30.486;2022-07-11T07:59:14;4.75;;;2.22;;
63836;SDS011;49991;50.518;30.486;2022-07-11T08:01:41;2.50;;;2.25;;
63836;SDS011;49991;50.518;30.486;2022-07-11T08:04:10;3.55;;;2.22;;
63836;SDS011;49991;50.518;30.486;2022-07-11T08:06:38;1.73;;;1.63;;
63836;SDS011;49991;50.518;30.486;2022-07-11T08:09:05;2.95;;;2.20;;
63836;SDS011;49991;50.518;30.486;2022-07-11T08:11:32;2.75;;;2.20;;
63836;SDS011;49991;50.518;30.486;2022-07-11T08:14:00;2.95;;;2.30;;
63836;SDS011;49991;50.518;30.486;2022-07-11T08:16:29;2.25;;;2.10;;
63836;SDS011;49991;50.518;30.486;2022-07-11T08:18:57;2.83;;;2.15;;
63836;SDS011;49991;50.518;30.486;2022-07-11T08:21:25;2.45;;;2.17;;
63836;SDS011;49991;50.518;30.486;2022-07-11T08:23:51;2.40;;;2.00;;
63836;SDS011;49991;50.518;30.486;2022-07-11T08:26:18;2.42;;;2.20;;
63836;SDS011;49991;50.518;30.486;2022-07-11T08:28:45;3.30;;;2.00;;
63836;SDS011;49991;50.518;30.486;2022-07-11T08:31:11;2.00;;;1.90;;
63836;SDS011;49991;50.518;30.486;2022-07-11T08:33:39;2.30;;;2.10;;
63836;SDS011;49991;50.518;30.486;2022-07-11T08:36:06;3.42;;;2.10;;
63836;SDS011;49991;50.518;30.486;2022-07-11T08:38:33;2.25;;;2.15;;
63836;SDS011;49991;50.518;30.486;2022-07-11T08:41:00;2.58;;;2.20;;
63836;SDS011;49991;50.518;30.486;2022-07-11T08:43:28;2.20;;;2.10;;
63836;SDS011;49991;50.518;30.486;2022-07-11T08:45:55;2.70;;;2.00;;
63836;SDS011;49991;50.518;30.486;2022-07-11T08:48:23;4.95;;;1.95;;
63836;SDS011;49991;50.518;30.486;2022-07-11T08:50:51;4.18;;;2.00;;
63836;SDS011;49991;50.518;30.486;2022-07-11T08:53:18;3.22;;;2.00;;
63836;SDS011;49991;50.518;30.486;2022-07-11T08:55:44;2.33;;;2.05;;
63836;SDS011;49991;50.518;30.486;2022-07-11T08:58:12;2.08;;;1.98;;
63836;SDS011;49991;50.518;30.486;2022-07-11T09:00:40;3.00;;;1.90;;
63836;SDS011;49991;50.518;30.486;2022-07-11T09:03:10;2.28;;;2.10;;
63836;SDS011;49991;50.518;30.486;2022-07-11T09:05:39;2.28;;;2.17;;
63836;SDS011;49991;50.518;30.486;2022-07-11T09:08:07;2.90;;;2.05;;
63836;SDS011;49991;50.518;30.486;2022-07-11T09:10:35;2.10;;;1.95;;
63836;SDS011;49991;50.518;30.486;2022-07-11T09:13:05;2.25;;;2.00;;
63836;SDS011;49991;50.518;30.486;2022-07-11T09:15:34;2.08;;;1.95;;
63836;SDS011;49991;50.518;30.486;2022-07-11T09:18:03;2.42;;;1.90;;
63836;SDS011;49991;50.518;30.486;2022-07-11T09:23:38;2.10;;;2.00;;
63836;SDS011;49991;50.518;30.486;2022-07-11T09:26:23;2.33;;;1.77;;
63836;SDS011;49991;50.518;30.486;2022-07-11T09:29:03;2.00;;;1.90;;
63836;SDS011;49991;50.518;30.486;2022-07-11T09:31:33;2.10;;;1.90;;
63836;SDS011;49991;50.518;30.486;2022-07-11T09:34:01;2.60;;;1.92;;
63836;SDS011;49991;50.518;30.486;2022-07-11T09:36:33;2.63;;;2.10;;
63836;SDS011;49991;50.518;30.486;2022-07-11T09:39:05;2.30;;;2.10;;
63836;SDS011;49991;50.518;30.486;2022-07-11T09:41:33;1.88;;;1.77;;
63836;SDS011;49991;50.518;30.486;2022-07-11T09:44:13;2.20;;;2.10;;
63836;SDS011;49991;50.518;30.486;2022-07-11T09:46:42;3.30;;;2.17;;
63836;SDS011;49991;50.518;30.486;2022-07-11T09:49:11;2.30;;;2.10;;
63836;SDS011;49991;50.518;30.486;2022-07-11T09:51:38;3.05;;;1.80;;
63836;SDS011;49991;50.518;30.486;2022-07-11T09:54:07;3.17;;;2.22;;
63836;SDS011;49991;50.518;30.486;2022-07-11T09:56:36;4.05;;;2.00;;
63836;SDS011;49991;50.518;30.486;2022-07-11T09:59:06;3.50;;;1.90;;
63836;SDS011;49991;50.518;30.486;2022-07-11T10:01:34;2.13;;;1.90;;
63836;SDS011;49991;50.518;30.486;2022-07-11T10:04:02;2.47;;;2.10;;
63836;SDS011;49991;50.518;30.486;2022-07-11T10:06:31;2.08;;;1.73;;
63836;SDS011;49991;50.518;30.486;2022-07-11T10:08:57;2.05;;;1.70;;
63836;SDS011;49991;50.518;30.486;2022-07-11T10:11:25;2.45;;;1.95;;
63836;SDS011;49991;50.518;30.486;2022-07-11T10:13:52;2.90;;;1.70;;
63836;SDS011;49991;50.518;30.486;2022-07-11T10:16:25;1.75;;;1.60;;
63836;SDS011;49991;50.518;30.486;2022-07-11T10:19:07;2.00;;;1.90;;
63836;SDS011;49991;50.518;30.486;2022-07-11T10:21:52;2.17;;;1.88;;
63836;SDS011;49991;50.518;30.486;2022-07-11T10:24:28;3.13;;;1.83;;
63836;SDS011;49991;50.518;30.486;2022-07-11T10:27:05;2.35;;;2.22;;
63836;SDS011;49991;50.518;30.486;2022-07-11T10:29:39;2.67;;;1.80;;
63836;SDS011;49991;50.518;30.486;2022-07-11T10:32:12;3.05;;;2.03;;
63836;SDS011;49991;50.518;30.486;2022-07-11T10:34:39;3.38;;;1.80;;
63836;SDS011;49991;50.518;30.486;2022-07-11T10:37:06;1.73;;;1.63;;
63836;SDS011;49991;50.518;30.486;2022-07-11T10:39:34;5.47;;;3.28;;
63836;SDS011;49991;50.518;30.486;2022-07-11T10:42:02;5.47;;;4.22;;
63836;SDS011;49991;50.518;30.486;2022-07-11T10:44:48;9.25;;;4.68;;
63836;SDS011;49991;50.518;30.486;2022-07-11T10:50:15;7.15;;;4.30;;
63836;SDS011;49991;50.518;30.486;2022-07-11T10:52:55;9.38;;;4.68;;
63836;SDS011;49991;50.518;30.486;2022-07-11T10:55:28;7.10;;;4.60;;
63836;SDS011;49991;50.518;30.486;2022-07-11T10:58:08;4.90;;;3.83;;
63836;SDS011;49991;50.518;30.486;2022-07-11T11:00:42;5.60;;;3.90;;
63836;SDS011;49991;50.518;30.486;2022-07-11T11:03:10;7.20;;;4.03;;
63836;SDS011;49991;50.518;30.486;2022-07-11T11:05:41;6.38;;;3.90;;
63836;SDS011;49991;50.518;30.486;2022-07-11T11:16:52;6.40;;;3.50;;
63836;SDS011;49991;50.518;30.486;2022-07-11T11:22:23;5.70;;;3.50;;
63836;SDS011;49991;50.518;30.486;2022-07-11T11:24:51;5.78;;;3.13;;
63836;SDS011;49991;50.518;30.486;2022-07-11T11:27:20;4.05;;;3.20;;
63836;SDS011;49991;50.518;30.486;2022-07-11T11:29:50;6.90;;;3.47;;
63836;SDS011;49991;50.518;30.486;2022-07-11T11:32:19;4.68;;;3.03;;
63836;SDS011;49991;50.518;30.486;2022-07-11T11:34:46;2.92;;;2.72;;
63836;SDS011;49991;50.518;30.486;2022-07-11T11:37:14;5.55;;;3.13;;
63836;SDS011;49991;50.518;30.486;2022-07-11T11:39:42;3.70;;;2.88;;
63836;SDS011;49991;50.518;30.486;2022-07-11T11:42:10;2.92;;;2.58;;
63836;SDS011;49991;50.518;30.486;2022-07-11T11:44:49;3.15;;;2.75;;
63836;SDS011;49991;50.518;30.486;2022-07-11T11:47:22;3.97;;;2.53;;
63836;SDS011;49991;50.518;30.486;2022-07-11T11:49:50;3.72;;;2.60;;
63836;SDS011;49991;50.518;30.486;2022-07-11T11:52:17;3.72;;;2.63;;
63836;SDS011;49991;50.518;30.486;2022-07-11T11:54:50;3.40;;;2.40;;
63836;SDS011;49991;50.518;30.486;2022-07-11T11:57:19;4.75;;;2.65;;
63836;SDS011;49991;50.518;30.486;2022-07-11T11:59:47;2.35;;;2.15;;
63836;SDS011;49991;50.518;30.486;2022-07-11T12:02:21;3.45;;;2.83;;
63836;SDS011;49991;50.518;30.486;2022-07-11T12:04:52;2.25;;;2.05;;
63836;SDS011;49991;50.518;30.486;2022-07-11T12:07:22;2.45;;;2.25;;
63836;SDS011;49991;50.518;30.486;2022-07-11T12:09:51;2.17;;;2.08;;
63836;SDS011;49991;50.518;30.486;2022-07-11T12:12:21;6.15;;;2.75;;
63836;SDS011;49991;50.518;30.486;2022-07-11T12:15:21;4.45;;;2.80;;
63836;SDS011;49991;50.518;30.486;2022-07-11T12:17:52;5.82;;;3.20;;
63836;SDS011;49991;50.518;30.486;2022-07-11T12:20:39;4.22;;;3.40;;
63836;SDS011;49991;50.518;30.486;2022-07-11T12:23:08;5.47;;;3.30;;
63836;SDS011;49991;50.518;30.486;2022-07-11T12:25:37;5.07;;;3.10;;
63836;SDS011;49991;50.518;30.486;2022-07-11T12:28:05;6.60;;;3.40;;
63836;SDS011;49991;50.518;30.486;2022-07-11T12:30:34;6.75;;;4.05;;
63836;SDS011;49991;50.518;30.486;2022-07-11T12:33:03;4.85;;;3.75;;
63836;SDS011;49991;50.518;30.486;2022-07-11T12:35:30;6.68;;;3.70;;
63836;SDS011;49991;50.518;30.486;2022-07-11T12:37:57;5.85;;;3.42;;
63836;SDS011;49991;50.518;30.486;2022-07-11T12:40:24;4.97;;;3.55;;
63836;SDS011;49991;50.518;30.486;2022-07-11T12:42:51;5.07;;;3.40;;
63836;SDS011;49991;50.518;30.486;2022-07-11T12:45:17;4.57;;;3.67;;
63836;SDS011;49991;50.518;30.486;2022-07-11T12:47:44;5.80;;;3.42;;
63836;SDS011;49991;50.518;30.486;2022-07-11T12:50:13;6.43;;;3.70;;
63836;SDS011;49991;50.518;30.486;2022-07-11T12:52:42;6.15;;;3.30;;
63836;SDS011;49991;50.518;30.486;2022-07-11T12:55:18;7.30;;;3.30;;
63836;SDS011;49991;50.518;30.486;2022-07-11T12:57:59;4.75;;;3.63;;
63836;SDS011;49991;50.518;30.486;2022-07-11T13:00:40;5.38;;;3.60;;
63836;SDS011;49991;50.518;30.486;2022-07-11T13:03:10;4.28;;;3.70;;
63836;SDS011;49991;50.518;30.486;2022-07-11T13:05:48;5.30;;;3.40;;
63836;SDS011;49991;50.518;30.486;2022-07-11T13:08:22;6.85;;;4.10;;
63836;SDS011;49991;50.518;30.486;2022-07-11T13:11:08;6.05;;;3.85;;
63836;SDS011;49991;50.518;30.486;2022-07-11T13:13:34;7.35;;;4.45;;
63836;SDS011;49991;50.518;30.486;2022-07-11T13:16:01;6.22;;;3.97;;
63836;SDS011;49991;50.518;30.486;2022-07-11T13:18:30;6.93;;;4.30;;
63836;SDS011;49991;50.518;30.486;2022-07-11T13:20:58;7.10;;;4.47;;
63836;SDS011;49991;50.518;30.486;2022-07-11T13:23:25;9.13;;;4.88;;
63836;SDS011;49991;50.518;30.486;2022-07-11T13:25:52;7.57;;;4.75;;
63836;SDS011;49991;50.518;30.486;2022-07-11T13:28:19;8.48;;;5.05;;
63836;SDS011;49991;50.518;30.486;2022-07-11T13:30:47;5.57;;;4.88;;
63836;SDS011;49991;50.518;30.486;2022-07-11T13:33:14;6.93;;;4.35;;
63836;SDS011;49991;50.518;30.486;2022-07-11T13:35:41;6.07;;;4.25;;
63836;SDS011;49991;50.518;30.486;2022-07-11T13:38:09;9.18;;;4.65;;
63836;SDS011;49991;50.518;30.486;2022-07-11T13:40:36;7.90;;;5.40;;
63836;SDS011;49991;50.518;30.486;2022-07-11T13:43:03;7.68;;;4.72;;
63836;SDS011;49991;50.518;30.486;2022-07-11T13:45:30;9.13;;;4.70;;
63836;SDS011;49991;50.518;30.486;2022-07-11T13:47:56;7.45;;;4.47;;
63836;SDS011;49991;50.518;30.486;2022-07-11T13:50:23;7.10;;;4.40;;
63836;SDS011;49991;50.518;30.486;2022-07-11T13:52:50;6.85;;;4.85;;
63836;SDS011;49991;50.518;30.486;2022-07-11T13:55:19;9.23;;;4.88;;
63836;SDS011;49991;50.518;30.486;2022-07-11T13:57:49;6.60;;;4.57;;
63836;SDS011;49991;50.518;30.486;2022-07-11T14:00:18;8.55;;;4.68;;
63836;SDS011;49991;50.518;30.486;2022-07-11T14:02:45;5.20;;;4.32;;
63836;SDS011;49991;50.518;30.486;2022-07-11T14:05:13;8.55;;;4.20;;
63836;SDS011;49991;50.518;30.486;2022-07-11T14:07:40;7.22;;;4.15;;
63836;SDS011;49991;50.518;30.486;2022-07-11T14:10:07;6.30;;;3.80;;
63836;SDS011;49991;50.518;30.486;2022-07-11T14:12:35;5.18;;;3.90;;
63836;SDS011;49991;50.518;30.486;2022-07-11T14:15:02;7.00;;;4.07;;
63836;SDS011;49991;50.518;30.486;2022-07-11T14:17:30;5.13;;;4.28;;
63836;SDS011;49991;50.518;30.486;2022-07-11T14:19:56;6.38;;;4.22;;
63836;SDS011;49991;50.518;30.486;2022-07-11T14:22:23;4.10;;;3.70;;
63836;SDS011;49991;50.518;30.486;2022-07-11T14:24:50;8.98;;;3.65;;
63836;SDS011;49991;50.518;30.486;2022-07-11T14:27:16;4.60;;;3.60;;
63836;SDS011;49991;50.518;30.486;2022-07-11T14:29:44;4.90;;;3.28;;
63836;SDS011;49991;50.518;30.486;2022-07-11T14:32:12;3.58;;;2.75;;
63836;SDS011;49991;50.518;30.486;2022-07-11T14:34:40;4.35;;;3.17;;
63836;SDS011;49991;50.518;30.486;2022-07-11T14:37:07;3.20;;;2.78;;
63836;SDS011;49991;50.518;30.486;2022-07-11T14:39:33;5.03;;;2.75;;
63836;SDS011;49991;50.518;30.486;2022-07-11T14:42:00;3.22;;;2.83;;
63836;SDS011;49991;50.518;30.486;2022-07-11T14:44:27;4.25;;;2.80;;
63836;SDS011;49991;50.518;30.486;2022-07-11T14:46:55;3.00;;;2.70;;
63836;SDS011;49991;50.518;30.486;2022-07-11T14:49:22;3.75;;;2.67;;
63836;SDS011;49991;50.518;30.486;2022-07-11T14:51:49;3.85;;;2.70;;
63836;SDS011;49991;50.518;30.486;2022-07-11T14:54:16;3.42;;;2.75;;
63836;SDS011;49991;50.518;30.486;2022-07-11T14:56:42;5.00;;;2.80;;